sensor_id;sensor_type;location;lat;lon;timestamp;P1;durP1;ratioP1;P2;durP2;ratioP2
30896;SDS011;64229;52.246;21.054;2023-11-21T00:01:56;29.83;;;13.25;;
30896;SDS011;64229;52.246;21.054;2023-11-21T00:04:22;32.58;;;14.57;;
30896;SDS011;64229;52.246;21.054;2023-11-21T00:06:47;37.55;;;15.63;;
30896;SDS011;64229;52.246;21.054;2023-11-21T00:09:13;30.10;;;13.20;;
30896;SDS011;64229;52.246;21.054;2023-11-21T00:11:40;28.38;;;12.50;;
30896;SDS011;64229;52.246;21.054;2023-11-21T00:14:06;31.33;;;13.68;;
30896;SDS011;64229;52.246;21.054;2023-11-21T00:16:31;30.70;;;12.57;;
30896;SDS011;64229;52.246;21.054;2023-11-21T00:18:57;28.35;;;12.82;;
30896;SDS011;64229;52.246;21.054;2023-11-21T00:21:22;24.13;;;12.60;;
30896;SDS011;64229;52.246;21.054;2023-11-21T00:23:48;29.73;;;13.23;;
30896;SDS011;64229;52.246;21.054;2023-11-21T00:26:13;27.38;;;13.07;;
30896;SDS011;64229;52.246;21.054;2023-11-21T00:28:39;27.10;;;12.18;;
30896;SDS011;64229;52.246;21.054;2023-11-21T00:31:05;31.83;;;12.65;;
30896;SDS011;64229;52.246;21.054;2023-11-21T00:33:30;31.92;;;12.48;;
30896;SDS011;64229;52.246;21.054;2023-11-21T00:35:56;30.02;;;13.57;;
30896;SDS011;64229;52.246;21.054;2023-11-21T00:38:21;29.13;;;12.75;;
30896;SDS011;64229;52.246;21.054;2023-11-21T00:40:47;32.90;;;14.15;;
30896;SDS011;64229;52.246;21.054;2023-11-21T00:43:12;35.55;;;13.38;;
30896;SDS011;64229;52.246;21.054;2023-11-21T00:45:37;32.70;;;13.18;;
30896;SDS011;64229;52.246;21.054;2023-11-21T00:48:03;33.67;;;13.98;;
30896;SDS011;64229;52.246;21.054;2023-11-21T00:50:30;31.30;;;13.23;;
30896;SDS011;64229;52.246;21.054;2023-11-21T00:52:55;32.15;;;13.55;;
30896;SDS011;64229;52.246;21.054;2023-11-21T00:55:21;32.10;;;13.70;;
30896;SDS011;64229;52.246;21.054;2023-11-21T00:57:46;30.88;;;13.07;;
30896;SDS011;64229;52.246;21.054;2023-11-21T01:00:11;30.00;;;13.45;;
30896;SDS011;64229;52.246;21.054;2023-11-21T01:02:42;30.15;;;14.07;;
30896;SDS011;64229;52.246;21.054;2023-11-21T01:05:08;31.05;;;14.05;;
30896;SDS011;64229;52.246;21.054;2023-11-21T01:07:34;31.33;;;13.90;;
30896;SDS011;64229;52.246;21.054;2023-11-21T01:09:59;30.38;;;13.38;;
30896;SDS011;64229;52.246;21.054;2023-11-21T01:12:24;29.00;;;13.07;;
30896;SDS011;64229;52.246;21.054;2023-11-21T01:14:50;31.00;;;13.55;;
30896;SDS011;64229;52.246;21.054;2023-11-21T01:17:16;33.28;;;13.98;;
30896;SDS011;64229;52.246;21.054;2023-11-21T01:19:41;35.28;;;15.07;;
30896;SDS011;64229;52.246;21.054;2023-11-21T01:22:07;36.72;;;15.48;;
30896;SDS011;64229;52.246;21.054;2023-11-21T01:24:33;36.40;;;14.77;;
30896;SDS011;64229;52.246;21.054;2023-11-21T01:26:59;31.88;;;14.18;;
30896;SDS011;64229;52.246;21.054;2023-11-21T01:29:24;35.20;;;15.20;;
30896;SDS011;64229;52.246;21.054;2023-11-21T01:31:49;32.50;;;13.75;;
30896;SDS011;64229;52.246;21.054;2023-11-21T01:34:14;34.30;;;14.10;;
30896;SDS011;64229;52.246;21.054;2023-11-21T01:36:40;33.92;;;14.45;;
30896;SDS011;64229;52.246;21.054;2023-11-21T01:39:05;32.83;;;14.40;;
30896;SDS011;64229;52.246;21.054;2023-11-21T01:41:33;33.03;;;14.48;;
30896;SDS011;64229;52.246;21.054;2023-11-21T01:44:00;29.42;;;13.52;;
30896;SDS011;64229;52.246;21.054;2023-11-21T01:46:25;30.13;;;13.55;;
30896;SDS011;64229;52.246;21.054;2023-11-21T01:48:51;32.55;;;14.65;;
30896;SDS011;64229;52.246;21.054;2023-11-21T01:51:19;32.60;;;14.40;;
30896;SDS011;64229;52.246;21.054;2023-11-21T01:53:44;33.50;;;15.45;;
30896;SDS011;64229;52.246;21.054;2023-11-21T01:56:11;31.45;;;14.07;;
30896;SDS011;64229;52.246;21.054;2023-11-21T01:58:38;33.65;;;14.25;;
30896;SDS011;64229;52.246;21.054;2023-11-21T02:01:04;28.30;;;13.90;;
30896;SDS011;64229;52.246;21.054;2023-11-21T02:03:30;30.63;;;13.00;;
30896;SDS011;64229;52.246;21.054;2023-11-21T02:05:56;32.03;;;13.60;;
30896;SDS011;64229;52.246;21.054;2023-11-21T02:08:21;31.60;;;13.57;;
30896;SDS011;64229;52.246;21.054;2023-11-21T02:10:47;30.75;;;13.90;;
30896;SDS011;64229;52.246;21.054;2023-11-21T02:13:12;30.05;;;13.55;;
30896;SDS011;64229;52.246;21.054;2023-11-21T02:15:38;32.30;;;12.88;;
30896;SDS011;64229;52.246;21.054;2023-11-21T02:18:03;29.55;;;12.80;;
30896;SDS011;64229;52.246;21.054;2023-11-21T02:20:31;26.92;;;12.38;;
30896;SDS011;64229;52.246;21.054;2023-11-21T02:22:59;33.60;;;13.10;;
30896;SDS011;64229;52.246;21.054;2023-11-21T02:25:25;27.30;;;12.38;;
30896;SDS011;64229;52.246;21.054;2023-11-21T02:27:55;31.23;;;13.63;;
30896;SDS011;64229;52.246;21.054;2023-11-21T02:30:21;31.10;;;13.73;;
30896;SDS011;64229;52.246;21.054;2023-11-21T02:32:50;30.67;;;13.15;;
30896;SDS011;64229;52.246;21.054;2023-11-21T02:35:18;30.27;;;13.32;;
30896;SDS011;64229;52.246;21.054;2023-11-21T02:37:44;30.85;;;13.68;;
30896;SDS011;64229;52.246;21.054;2023-11-21T02:40:10;31.70;;;13.95;;
30896;SDS011;64229;52.246;21.054;2023-11-21T02:42:37;27.23;;;12.43;;
30896;SDS011;64229;52.246;21.054;2023-11-21T02:45:03;29.02;;;13.45;;
30896;SDS011;64229;52.246;21.054;2023-11-21T02:47:30;30.08;;;13.15;;
30896;SDS011;64229;52.246;21.054;2023-11-21T02:49:55;29.27;;;13.45;;
30896;SDS011;64229;52.246;21.054;2023-11-21T02:52:21;29.33;;;12.95;;
30896;SDS011;64229;52.246;21.054;2023-11-21T02:54:46;30.70;;;12.73;;
30896;SDS011;64229;52.246;21.054;2023-11-21T02:57:12;34.53;;;14.27;;
30896;SDS011;64229;52.246;21.054;2023-11-21T02:59:38;34.90;;;13.82;;
30896;SDS011;64229;52.246;21.054;2023-11-21T03:02:03;30.88;;;13.93;;
30896;SDS011;64229;52.246;21.054;2023-11-21T03:04:29;31.23;;;13.35;;
30896;SDS011;64229;52.246;21.054;2023-11-21T03:06:54;30.40;;;13.55;;
30896;SDS011;64229;52.246;21.054;2023-11-21T03:09:20;32.40;;;14.15;;
30896;SDS011;64229;52.246;21.054;2023-11-21T03:11:45;30.48;;;13.48;;
30896;SDS011;64229;52.246;21.054;2023-11-21T03:14:10;32.13;;;14.65;;
30896;SDS011;64229;52.246;21.054;2023-11-21T03:16:36;33.67;;;13.68;;
30896;SDS011;64229;52.246;21.054;2023-11-21T03:19:03;35.95;;;14.70;;
30896;SDS011;64229;52.246;21.054;2023-11-21T03:21:28;35.75;;;15.00;;
30896;SDS011;64229;52.246;21.054;2023-11-21T03:23:54;35.25;;;14.07;;
30896;SDS011;64229;52.246;21.054;2023-11-21T03:26:19;36.63;;;14.48;;
30896;SDS011;64229;52.246;21.054;2023-11-21T03:28:45;35.08;;;15.23;;
30896;SDS011;64229;52.246;21.054;2023-11-21T03:31:11;32.47;;;13.30;;
30896;SDS011;64229;52.246;21.054;2023-11-21T03:33:36;30.75;;;14.00;;
30896;SDS011;64229;52.246;21.054;2023-11-21T03:36:02;34.30;;;14.15;;
30896;SDS011;64229;52.246;21.054;2023-11-21T03:38:28;33.75;;;13.85;;
30896;SDS011;64229;52.246;21.054;2023-11-21T03:40:54;33.88;;;13.00;;
30896;SDS011;64229;52.246;21.054;2023-11-21T03:43:19;34.70;;;14.30;;
30896;SDS011;64229;52.246;21.054;2023-11-21T03:45:45;36.83;;;14.13;;
30896;SDS011;64229;52.246;21.054;2023-11-21T03:48:11;28.30;;;13.55;;
30896;SDS011;64229;52.246;21.054;2023-11-21T03:50:37;36.38;;;14.25;;
30896;SDS011;64229;52.246;21.054;2023-11-21T03:53:02;32.50;;;13.50;;
30896;SDS011;64229;52.246;21.054;2023-11-21T03:55:28;33.80;;;13.90;;
30896;SDS011;64229;52.246;21.054;2023-11-21T03:57:56;29.88;;;13.48;;
30896;SDS011;64229;52.246;21.054;2023-11-21T04:00:22;32.97;;;12.98;;
30896;SDS011;64229;52.246;21.054;2023-11-21T04:02:47;35.13;;;13.80;;
30896;SDS011;64229;52.246;21.054;2023-11-21T04:05:12;32.97;;;13.65;;
30896;SDS011;64229;52.246;21.054;2023-11-21T04:07:38;29.45;;;12.93;;
30896;SDS011;64229;52.246;21.054;2023-11-21T04:10:04;29.35;;;12.68;;
30896;SDS011;64229;52.246;21.054;2023-11-21T04:12:32;35.65;;;14.20;;
30896;SDS011;64229;52.246;21.054;2023-11-21T04:14:57;29.17;;;13.32;;
30896;SDS011;64229;52.246;21.054;2023-11-21T04:17:23;30.35;;;12.65;;
30896;SDS011;64229;52.246;21.054;2023-11-21T04:19:49;25.65;;;11.88;;
30896;SDS011;64229;52.246;21.054;2023-11-21T04:22:14;24.48;;;10.25;;
30896;SDS011;64229;52.246;21.054;2023-11-21T04:24:39;31.60;;;11.93;;
30896;SDS011;64229;52.246;21.054;2023-11-21T04:27:05;21.65;;;10.45;;
30896;SDS011;64229;52.246;21.054;2023-11-21T04:29:30;24.90;;;11.60;;
30896;SDS011;64229;52.246;21.054;2023-11-21T04:31:55;27.17;;;12.10;;
30896;SDS011;64229;52.246;21.054;2023-11-21T04:34:21;27.92;;;11.20;;
30896;SDS011;64229;52.246;21.054;2023-11-21T04:36:46;28.48;;;12.35;;
30896;SDS011;64229;52.246;21.054;2023-11-21T04:39:11;25.85;;;11.13;;
30896;SDS011;64229;52.246;21.054;2023-11-21T04:41:37;28.17;;;11.60;;
30896;SDS011;64229;52.246;21.054;2023-11-21T04:44:04;24.50;;;10.80;;
30896;SDS011;64229;52.246;21.054;2023-11-21T04:46:30;27.23;;;11.45;;
30896;SDS011;64229;52.246;21.054;2023-11-21T04:48:57;23.88;;;11.27;;
30896;SDS011;64229;52.246;21.054;2023-11-21T04:51:23;22.42;;;10.10;;
30896;SDS011;64229;52.246;21.054;2023-11-21T04:53:48;25.73;;;10.77;;
30896;SDS011;64229;52.246;21.054;2023-11-21T04:56:13;24.88;;;10.93;;
30896;SDS011;64229;52.246;21.054;2023-11-21T04:58:39;25.33;;;11.25;;
30896;SDS011;64229;52.246;21.054;2023-11-21T05:01:05;26.27;;;10.55;;
30896;SDS011;64229;52.246;21.054;2023-11-21T05:03:32;20.40;;;8.93;;
30896;SDS011;64229;52.246;21.054;2023-11-21T05:05:57;24.17;;;11.02;;
30896;SDS011;64229;52.246;21.054;2023-11-21T05:08:22;22.95;;;10.60;;
30896;SDS011;64229;52.246;21.054;2023-11-21T05:10:48;22.25;;;9.57;;
30896;SDS011;64229;52.246;21.054;2023-11-21T05:13:14;21.15;;;9.43;;
30896;SDS011;64229;52.246;21.054;2023-11-21T05:15:42;22.58;;;10.15;;
30896;SDS011;64229;52.246;21.054;2023-11-21T05:18:09;21.10;;;9.52;;
30896;SDS011;64229;52.246;21.054;2023-11-21T05:20:35;19.17;;;9.27;;
30896;SDS011;64229;52.246;21.054;2023-11-21T05:23:00;20.27;;;9.90;;
30896;SDS011;64229;52.246;21.054;2023-11-21T05:25:26;24.30;;;10.50;;
30896;SDS011;64229;52.246;21.054;2023-11-21T05:27:51;26.08;;;10.07;;
30896;SDS011;64229;52.246;21.054;2023-11-21T05:30:18;23.00;;;10.00;;
30896;SDS011;64229;52.246;21.054;2023-11-21T05:32:43;23.58;;;10.50;;
30896;SDS011;64229;52.246;21.054;2023-11-21T05:35:08;20.65;;;9.70;;
30896;SDS011;64229;52.246;21.054;2023-11-21T05:37:37;23.05;;;9.85;;
30896;SDS011;64229;52.246;21.054;2023-11-21T05:40:05;19.65;;;9.60;;
30896;SDS011;64229;52.246;21.054;2023-11-21T05:42:32;21.02;;;8.82;;
30896;SDS011;64229;52.246;21.054;2023-11-21T05:44:57;23.55;;;9.25;;
30896;SDS011;64229;52.246;21.054;2023-11-21T05:47:24;25.48;;;10.73;;
30896;SDS011;64229;52.246;21.054;2023-11-21T05:49:51;21.70;;;9.00;;
30896;SDS011;64229;52.246;21.054;2023-11-21T05:52:17;21.80;;;9.73;;
30896;SDS011;64229;52.246;21.054;2023-11-21T05:54:42;21.70;;;9.20;;
30896;SDS011;64229;52.246;21.054;2023-11-21T05:57:08;20.55;;;9.45;;
30896;SDS011;64229;52.246;21.054;2023-11-21T05:59:34;20.33;;;9.50;;
30896;SDS011;64229;52.246;21.054;2023-11-21T06:01:59;17.98;;;9.15;;
30896;SDS011;64229;52.246;21.054;2023-11-21T06:04:24;19.33;;;9.15;;
30896;SDS011;64229;52.246;21.054;2023-11-21T06:06:51;21.25;;;8.82;;
30896;SDS011;64229;52.246;21.054;2023-11-21T06:09:17;20.27;;;9.20;;
30896;SDS011;64229;52.246;21.054;2023-11-21T06:11:43;21.88;;;8.88;;
30896;SDS011;64229;52.246;21.054;2023-11-21T06:14:08;19.40;;;8.40;;
30896;SDS011;64229;52.246;21.054;2023-11-21T06:16:34;18.95;;;8.55;;
30896;SDS011;64229;52.246;21.054;2023-11-21T06:19:00;22.25;;;9.02;;
30896;SDS011;64229;52.246;21.054;2023-11-21T06:21:26;20.35;;;8.57;;
30896;SDS011;64229;52.246;21.054;2023-11-21T06:23:51;24.75;;;10.15;;
30896;SDS011;64229;52.246;21.054;2023-11-21T06:26:18;21.13;;;9.95;;
30896;SDS011;64229;52.246;21.054;2023-11-21T06:28:43;18.50;;;9.25;;
30896;SDS011;64229;52.246;21.054;2023-11-21T06:31:09;19.23;;;8.55;;
30896;SDS011;64229;52.246;21.054;2023-11-21T06:33:35;19.88;;;9.15;;
30896;SDS011;64229;52.246;21.054;2023-11-21T06:36:01;21.50;;;9.57;;
30896;SDS011;64229;52.246;21.054;2023-11-21T06:38:31;21.17;;;10.65;;
30896;SDS011;64229;52.246;21.054;2023-11-21T06:40:57;23.33;;;9.85;;
30896;SDS011;64229;52.246;21.054;2023-11-21T06:43:23;20.00;;;8.98;;
30896;SDS011;64229;52.246;21.054;2023-11-21T06:45:48;19.33;;;9.18;;
30896;SDS011;64229;52.246;21.054;2023-11-21T06:48:14;23.40;;;9.98;;
30896;SDS011;64229;52.246;21.054;2023-11-21T06:50:40;18.30;;;10.15;;
30896;SDS011;64229;52.246;21.054;2023-11-21T06:53:05;18.60;;;9.48;;
30896;SDS011;64229;52.246;21.054;2023-11-21T06:55:32;21.55;;;10.18;;
30896;SDS011;64229;52.246;21.054;2023-11-21T06:57:58;23.58;;;10.00;;
30896;SDS011;64229;52.246;21.054;2023-11-21T07:00:25;20.25;;;9.82;;
30896;SDS011;64229;52.246;21.054;2023-11-21T07:02:52;24.48;;;11.05;;
30896;SDS011;64229;52.246;21.054;2023-11-21T07:05:18;21.52;;;9.63;;
30896;SDS011;64229;52.246;21.054;2023-11-21T07:07:46;26.63;;;11.63;;
30896;SDS011;64229;52.246;21.054;2023-11-21T07:10:11;25.75;;;10.65;;
30896;SDS011;64229;52.246;21.054;2023-11-21T07:12:37;23.58;;;10.60;;
30896;SDS011;64229;52.246;21.054;2023-11-21T07:15:03;26.10;;;10.93;;
30896;SDS011;64229;52.246;21.054;2023-11-21T07:17:30;27.52;;;11.38;;
30896;SDS011;64229;52.246;21.054;2023-11-21T07:19:56;24.95;;;10.70;;
30896;SDS011;64229;52.246;21.054;2023-11-21T07:22:21;25.05;;;10.80;;
30896;SDS011;64229;52.246;21.054;2023-11-21T07:24:50;26.25;;;11.40;;
30896;SDS011;64229;52.246;21.054;2023-11-21T07:27:18;24.80;;;10.30;;
30896;SDS011;64229;52.246;21.054;2023-11-21T07:29:44;22.25;;;9.95;;
30896;SDS011;64229;52.246;21.054;2023-11-21T07:32:09;25.67;;;10.50;;
30896;SDS011;64229;52.246;21.054;2023-11-21T07:34:35;20.52;;;10.13;;
30896;SDS011;64229;52.246;21.054;2023-11-21T07:37:01;24.77;;;11.38;;
30896;SDS011;64229;52.246;21.054;2023-11-21T07:39:27;22.90;;;10.50;;
30896;SDS011;64229;52.246;21.054;2023-11-21T07:41:53;22.48;;;10.38;;
30896;SDS011;64229;52.246;21.054;2023-11-21T07:44:19;20.92;;;10.20;;
30896;SDS011;64229;52.246;21.054;2023-11-21T07:46:45;26.55;;;10.10;;
30896;SDS011;64229;52.246;21.054;2023-11-21T07:49:11;21.63;;;9.88;;
30896;SDS011;64229;52.246;21.054;2023-11-21T07:51:36;23.88;;;10.30;;
30896;SDS011;64229;52.246;21.054;2023-11-21T07:54:02;22.85;;;10.60;;
30896;SDS011;64229;52.246;21.054;2023-11-21T07:56:27;22.05;;;9.02;;
30896;SDS011;64229;52.246;21.054;2023-11-21T07:58:52;20.27;;;9.88;;
30896;SDS011;64229;52.246;21.054;2023-11-21T08:01:18;24.33;;;10.85;;
30896;SDS011;64229;52.246;21.054;2023-11-21T08:03:44;18.25;;;9.27;;
30896;SDS011;64229;52.246;21.054;2023-11-21T08:06:09;23.83;;;8.38;;
30896;SDS011;64229;52.246;21.054;2023-11-21T08:08:34;23.02;;;9.63;;
30896;SDS011;64229;52.246;21.054;2023-11-21T08:11:00;21.25;;;9.90;;
30896;SDS011;64229;52.246;21.054;2023-11-21T08:13:26;22.40;;;10.10;;
30896;SDS011;64229;52.246;21.054;2023-11-21T08:15:54;21.98;;;10.75;;
30896;SDS011;64229;52.246;21.054;2023-11-21T08:18:21;23.25;;;10.32;;
30896;SDS011;64229;52.246;21.054;2023-11-21T08:20:46;20.45;;;9.20;;
30896;SDS011;64229;52.246;21.054;2023-11-21T08:23:15;24.45;;;10.13;;
30896;SDS011;64229;52.246;21.054;2023-11-21T08:25:43;24.23;;;9.48;;
30896;SDS011;64229;52.246;21.054;2023-11-21T08:28:09;18.67;;;8.38;;
30896;SDS011;64229;52.246;21.054;2023-11-21T08:30:35;22.10;;;9.07;;
30896;SDS011;64229;52.246;21.054;2023-11-21T08:33:00;21.98;;;10.38;;
30896;SDS011;64229;52.246;21.054;2023-11-21T08:35:25;26.17;;;9.85;;
30896;SDS011;64229;52.246;21.054;2023-11-21T08:37:51;27.60;;;10.23;;
30896;SDS011;64229;52.246;21.054;2023-11-21T08:40:20;21.38;;;10.20;;
30896;SDS011;64229;52.246;21.054;2023-11-21T08:42:46;22.85;;;10.30;;
30896;SDS011;64229;52.246;21.054;2023-11-21T08:45:12;23.98;;;11.02;;
30896;SDS011;64229;52.246;21.054;2023-11-21T08:47:39;26.08;;;10.68;;
30896;SDS011;64229;52.246;21.054;2023-11-21T08:50:05;24.30;;;10.50;;
30896;SDS011;64229;52.246;21.054;2023-11-21T08:52:34;22.77;;;9.98;;
30896;SDS011;64229;52.246;21.054;2023-11-21T08:54:59;23.92;;;10.13;;
30896;SDS011;64229;52.246;21.054;2023-11-21T08:57:32;22.38;;;10.55;;
30896;SDS011;64229;52.246;21.054;2023-11-21T09:00:01;28.58;;;11.35;;
30896;SDS011;64229;52.246;21.054;2023-11-21T09:02:28;25.38;;;10.68;;
30896;SDS011;64229;52.246;21.054;2023-11-21T09:04:53;27.05;;;11.00;;
30896;SDS011;64229;52.246;21.054;2023-11-21T09:07:19;28.35;;;11.07;;
30896;SDS011;64229;52.246;21.054;2023-11-21T09:09:45;22.80;;;11.57;;
30896;SDS011;64229;52.246;21.054;2023-11-21T09:12:11;29.98;;;12.18;;
30896;SDS011;64229;52.246;21.054;2023-11-21T09:14:37;24.00;;;11.88;;
30896;SDS011;64229;52.246;21.054;2023-11-21T09:17:03;25.30;;;12.07;;
30896;SDS011;64229;52.246;21.054;2023-11-21T09:19:28;25.02;;;10.73;;
30896;SDS011;64229;52.246;21.054;2023-11-21T09:21:54;24.92;;;11.55;;
30896;SDS011;64229;52.246;21.054;2023-11-21T09:24:19;25.33;;;11.57;;
30896;SDS011;64229;52.246;21.054;2023-11-21T09:26:44;29.20;;;12.63;;
30896;SDS011;64229;52.246;21.054;2023-11-21T09:29:10;27.30;;;12.25;;
30896;SDS011;64229;52.246;21.054;2023-11-21T09:31:35;29.63;;;12.70;;
30896;SDS011;64229;52.246;21.054;2023-11-21T09:34:01;30.45;;;13.27;;
30896;SDS011;64229;52.246;21.054;2023-11-21T09:36:27;32.35;;;12.60;;
30896;SDS011;64229;52.246;21.054;2023-11-21T09:38:55;28.10;;;13.07;;
30896;SDS011;64229;52.246;21.054;2023-11-21T09:41:21;28.58;;;12.07;;
30896;SDS011;64229;52.246;21.054;2023-11-21T09:43:54;31.80;;;12.95;;
30896;SDS011;64229;52.246;21.054;2023-11-21T09:46:24;30.80;;;12.35;;
30896;SDS011;64229;52.246;21.054;2023-11-21T09:48:51;29.20;;;12.30;;
30896;SDS011;64229;52.246;21.054;2023-11-21T09:51:21;30.33;;;13.45;;
30896;SDS011;64229;52.246;21.054;2023-11-21T09:53:54;28.88;;;12.23;;
30896;SDS011;64229;52.246;21.054;2023-11-21T09:56:23;32.33;;;12.77;;
30896;SDS011;64229;52.246;21.054;2023-11-21T09:58:52;27.98;;;11.80;;
30896;SDS011;64229;52.246;21.054;2023-11-21T10:01:18;27.83;;;12.32;;
30896;SDS011;64229;52.246;21.054;2023-11-21T10:03:45;28.63;;;11.55;;
30896;SDS011;64229;52.246;21.054;2023-11-21T10:06:12;26.08;;;11.40;;
30896;SDS011;64229;52.246;21.054;2023-11-21T10:08:39;24.90;;;10.98;;
30896;SDS011;64229;52.246;21.054;2023-11-21T10:11:05;23.90;;;11.63;;
30896;SDS011;64229;52.246;21.054;2023-11-21T10:13:36;23.50;;;10.70;;
30896;SDS011;64229;52.246;21.054;2023-11-21T10:16:02;27.65;;;11.93;;
30896;SDS011;64229;52.246;21.054;2023-11-21T10:18:32;30.52;;;11.68;;
30896;SDS011;64229;52.246;21.054;2023-11-21T10:20:59;22.85;;;11.15;;
30896;SDS011;64229;52.246;21.054;2023-11-21T10:23:24;27.95;;;12.60;;
30896;SDS011;64229;52.246;21.054;2023-11-21T10:25:50;27.92;;;12.02;;
30896;SDS011;64229;52.246;21.054;2023-11-21T10:28:17;30.08;;;13.18;;
30896;SDS011;64229;52.246;21.054;2023-11-21T10:30:42;26.42;;;12.02;;
30896;SDS011;64229;52.246;21.054;2023-11-21T10:33:09;27.50;;;12.75;;
30896;SDS011;64229;52.246;21.054;2023-11-21T10:35:39;28.27;;;12.20;;
30896;SDS011;64229;52.246;21.054;2023-11-21T10:38:19;28.20;;;12.48;;
30896;SDS011;64229;52.246;21.054;2023-11-21T10:40:49;29.42;;;12.30;;
30896;SDS011;64229;52.246;21.054;2023-11-21T10:43:15;28.73;;;12.73;;
30896;SDS011;64229;52.246;21.054;2023-11-21T10:45:41;28.50;;;11.93;;
30896;SDS011;64229;52.246;21.054;2023-11-21T10:48:08;30.00;;;12.43;;
30896;SDS011;64229;52.246;21.054;2023-11-21T10:50:40;31.65;;;11.77;;
30896;SDS011;64229;52.246;21.054;2023-11-21T10:53:06;28.63;;;11.98;;
30896;SDS011;64229;52.246;21.054;2023-11-21T10:55:32;23.80;;;11.48;;
30896;SDS011;64229;52.246;21.054;2023-11-21T10:57:58;25.60;;;11.68;;
30896;SDS011;64229;52.246;21.054;2023-11-21T11:00:25;28.08;;;12.88;;
30896;SDS011;64229;52.246;21.054;2023-11-21T11:02:52;25.60;;;12.13;;
30896;SDS011;64229;52.246;21.054;2023-11-21T11:05:20;27.70;;;11.43;;
30896;SDS011;64229;52.246;21.054;2023-11-21T11:08:04;24.60;;;12.43;;
30896;SDS011;64229;52.246;21.054;2023-11-21T11:10:30;23.33;;;11.00;;
30896;SDS011;64229;52.246;21.054;2023-11-21T11:12:56;26.65;;;11.82;;
30896;SDS011;64229;52.246;21.054;2023-11-21T11:15:23;27.70;;;12.02;;
30896;SDS011;64229;52.246;21.054;2023-11-21T11:17:49;31.33;;;12.10;;
30896;SDS011;64229;52.246;21.054;2023-11-21T11:20:15;27.85;;;13.20;;
30896;SDS011;64229;52.246;21.054;2023-11-21T11:34:35;32.25;;;13.20;;
30896;SDS011;64229;52.246;21.054;2023-11-21T11:37:06;28.23;;;12.73;;
30896;SDS011;64229;52.246;21.054;2023-11-21T11:39:36;33.28;;;14.40;;
30896;SDS011;64229;52.246;21.054;2023-11-21T11:42:02;28.02;;;12.18;;
30896;SDS011;64229;52.246;21.054;2023-11-21T11:55:06;31.77;;;13.75;;
30896;SDS011;64229;52.246;21.054;2023-11-21T11:57:35;28.70;;;12.98;;
30896;SDS011;64229;52.246;21.054;2023-11-21T12:02:35;30.25;;;13.05;;
30896;SDS011;64229;52.246;21.054;2023-11-21T12:05:06;27.17;;;13.15;;
30896;SDS011;64229;52.246;21.054;2023-11-21T12:07:40;30.60;;;13.55;;
30896;SDS011;64229;52.246;21.054;2023-11-21T12:10:07;29.25;;;14.02;;
30896;SDS011;64229;52.246;21.054;2023-11-21T12:12:36;37.40;;;13.45;;
30896;SDS011;64229;52.246;21.054;2023-11-21T12:15:03;32.28;;;12.95;;
30896;SDS011;64229;52.246;21.054;2023-11-21T12:17:30;30.50;;;12.88;;
30896;SDS011;64229;52.246;21.054;2023-11-21T12:20:01;30.00;;;13.27;;
30896;SDS011;64229;52.246;21.054;2023-11-21T12:22:29;34.25;;;14.32;;
30896;SDS011;64229;52.246;21.054;2023-11-21T12:24:55;27.25;;;13.40;;
30896;SDS011;64229;52.246;21.054;2023-11-21T12:27:21;28.73;;;13.13;;
30896;SDS011;64229;52.246;21.054;2023-11-21T12:29:46;37.30;;;13.80;;
30896;SDS011;64229;52.246;21.054;2023-11-21T12:32:11;30.50;;;13.20;;
30896;SDS011;64229;52.246;21.054;2023-11-21T12:34:38;27.33;;;11.55;;
30896;SDS011;64229;52.246;21.054;2023-11-21T12:37:04;32.55;;;13.43;;
30896;SDS011;64229;52.246;21.054;2023-11-21T12:39:29;27.77;;;13.38;;
30896;SDS011;64229;52.246;21.054;2023-11-21T12:41:55;27.48;;;12.57;;
30896;SDS011;64229;52.246;21.054;2023-11-21T12:44:21;28.40;;;12.20;;
30896;SDS011;64229;52.246;21.054;2023-11-21T12:46:48;29.92;;;12.80;;
30896;SDS011;64229;52.246;21.054;2023-11-21T12:49:15;33.17;;;12.93;;
30896;SDS011;64229;52.246;21.054;2023-11-21T12:51:44;27.77;;;13.18;;
30896;SDS011;64229;52.246;21.054;2023-11-21T12:54:11;32.47;;;12.63;;
30896;SDS011;64229;52.246;21.054;2023-11-21T12:56:40;31.23;;;13.07;;
30896;SDS011;64229;52.246;21.054;2023-11-21T12:59:05;25.60;;;12.50;;
30896;SDS011;64229;52.246;21.054;2023-11-21T13:01:31;34.55;;;13.55;;
30896;SDS011;64229;52.246;21.054;2023-11-21T13:03:57;25.40;;;12.23;;
30896;SDS011;64229;52.246;21.054;2023-11-21T13:06:23;29.52;;;12.70;;
30896;SDS011;64229;52.246;21.054;2023-11-21T13:08:51;26.83;;;11.70;;
30896;SDS011;64229;52.246;21.054;2023-11-21T13:11:16;25.55;;;12.00;;
30896;SDS011;64229;52.246;21.054;2023-11-21T13:13:42;26.88;;;12.18;;
30896;SDS011;64229;52.246;21.054;2023-11-21T13:16:11;31.65;;;11.75;;
30896;SDS011;64229;52.246;21.054;2023-11-21T13:18:38;29.38;;;11.75;;
30896;SDS011;64229;52.246;21.054;2023-11-21T13:21:07;27.75;;;13.07;;
30896;SDS011;64229;52.246;21.054;2023-11-21T13:23:38;29.08;;;12.55;;
30896;SDS011;64229;52.246;21.054;2023-11-21T13:26:06;29.75;;;13.15;;
30896;SDS011;64229;52.246;21.054;2023-11-21T13:28:32;34.63;;;14.43;;
30896;SDS011;64229;52.246;21.054;2023-11-21T13:30:58;33.67;;;15.38;;
30896;SDS011;64229;52.246;21.054;2023-11-21T13:33:33;32.00;;;13.85;;
30896;SDS011;64229;52.246;21.054;2023-11-21T13:36:02;31.88;;;14.60;;
30896;SDS011;64229;52.246;21.054;2023-11-21T13:38:32;35.58;;;14.25;;
30896;SDS011;64229;52.246;21.054;2023-11-21T13:40:59;33.10;;;14.20;;
30896;SDS011;64229;52.246;21.054;2023-11-21T13:43:25;33.17;;;13.30;;
30896;SDS011;64229;52.246;21.054;2023-11-21T13:45:51;34.42;;;15.68;;
30896;SDS011;64229;52.246;21.054;2023-11-21T13:48:24;32.55;;;14.55;;
30896;SDS011;64229;52.246;21.054;2023-11-21T13:50:56;34.45;;;15.40;;
30896;SDS011;64229;52.246;21.054;2023-11-21T13:53:30;32.92;;;14.68;;
30896;SDS011;64229;52.246;21.054;2023-11-21T13:55:56;32.63;;;15.95;;
30896;SDS011;64229;52.246;21.054;2023-11-21T13:58:25;40.65;;;16.30;;
30896;SDS011;64229;52.246;21.054;2023-11-21T14:01:09;32.50;;;14.90;;
30896;SDS011;64229;52.246;21.054;2023-11-21T14:03:54;33.25;;;15.05;;
30896;SDS011;64229;52.246;21.054;2023-11-21T14:06:25;36.05;;;15.50;;
30896;SDS011;64229;52.246;21.054;2023-11-21T14:08:57;32.70;;;15.57;;
30896;SDS011;64229;52.246;21.054;2023-11-21T14:11:23;36.42;;;15.43;;
30896;SDS011;64229;52.246;21.054;2023-11-21T14:13:48;37.83;;;17.15;;
30896;SDS011;64229;52.246;21.054;2023-11-21T14:16:15;33.42;;;15.30;;
30896;SDS011;64229;52.246;21.054;2023-11-21T14:18:42;32.83;;;15.23;;
30896;SDS011;64229;52.246;21.054;2023-11-21T14:21:18;34.80;;;15.80;;
30896;SDS011;64229;52.246;21.054;2023-11-21T14:23:43;33.45;;;15.13;;
30896;SDS011;64229;52.246;21.054;2023-11-21T14:26:10;32.13;;;14.48;;
30896;SDS011;64229;52.246;21.054;2023-11-21T14:28:40;35.63;;;14.95;;
30896;SDS011;64229;52.246;21.054;2023-11-21T14:31:06;36.35;;;14.77;;
30896;SDS011;64229;52.246;21.054;2023-11-21T14:33:32;37.80;;;14.93;;